createdAt,value
2023-05-19T00:01:34.798Z,96526.63
2023-05-19T00:04:01.178Z,96522.31
2023-05-19T00:06:27.619Z,96525.03
2023-05-19T00:08:54.003Z,96519.63
2023-05-19T00:11:20.405Z,96518.72
2023-05-19T00:13:46.824Z,96526.78
2023-05-19T00:16:13.256Z,96512.28
2023-05-19T00:18:39.668Z,96517.22
2023-05-19T00:21:06.255Z,96513.56
2023-05-19T00:23:32.638Z,96514.38
2023-05-19T00:25:59.070Z,96509.63
2023-05-19T00:28:25.462Z,96511.06
2023-05-19T00:30:51.904Z,96509.56
2023-05-19T00:33:18.349Z,96509.41
2023-05-19T00:35:44.736Z,96509.59
2023-05-19T00:38:11.173Z,96503.84
2023-05-19T00:40:37.558Z,96505.91
2023-05-19T00:43:03.942Z,96501.13
2023-05-19T00:45:30.380Z,96502.25
2023-05-19T00:47:56.810Z,96493.81
2023-05-19T00:50:23.300Z,96494.44
2023-05-19T00:52:49.725Z,96490.28
2023-05-19T00:55:16.107Z,96498.25
2023-05-19T00:57:42.567Z,96493.00
2023-05-19T01:00:08.989Z,96489.50
2023-05-19T01:02:35.581Z,96495.78
2023-05-19T01:05:02.007Z,96495.53
2023-05-19T01:07:28.438Z,96485.22
2023-05-19T01:09:54.868Z,96494.59
2023-05-19T01:12:21.294Z,96494.44
2023-05-19T01:14:47.713Z,96491.41
2023-05-19T01:17:14.137Z,96489.75
2023-05-19T01:19:40.585Z,96489.28
2023-05-19T01:22:07.047Z,96489.34
2023-05-19T01:24:33.481Z,96495.72
2023-05-19T01:26:59.859Z,96485.81
2023-05-19T01:29:26.286Z,96490.59
2023-05-19T01:31:52.734Z,96491.25
2023-05-19T01:34:19.175Z,96492.06
2023-05-19T01:36:45.575Z,96498.91
2023-05-19T01:39:11.998Z,96501.28
2023-05-19T01:41:38.426Z,96498.41
2023-05-19T01:44:04.821Z,96498.75
2023-05-19T01:46:31.291Z,96498.56
2023-05-19T01:48:57.754Z,96497.84
2023-05-19T01:51:24.213Z,96498.41
2023-05-19T01:53:50.651Z,96487.75
2023-05-19T01:56:17.036Z,96493.47
2023-05-19T01:58:43.410Z,96492.38
2023-05-19T02:01:09.849Z,96499.78
2023-05-19T02:03:36.261Z,96490.00
2023-05-19T02:06:02.706Z,96499.72
2023-05-19T02:08:29.084Z,96493.34
2023-05-19T02:10:55.511Z,96494.13
2023-05-19T02:13:21.942Z,96482.41
2023-05-19T02:15:48.335Z,96488.13
2023-05-19T02:18:14.710Z,96484.41
2023-05-19T02:20:41.129Z,96495.41
2023-05-19T02:23:07.571Z,96489.34
2023-05-19T02:25:33.943Z,96495.88
2023-05-19T02:28:00.317Z,96497.88
2023-05-19T02:30:26.756Z,96504.16
2023-05-19T02:32:53.254Z,96496.81
2023-05-19T02:35:19.723Z,96496.34
2023-05-19T02:37:46.107Z,96498.66
2023-05-19T02:40:12.519Z,96489.66
2023-05-19T02:42:38.928Z,96494.91
2023-05-19T02:45:05.325Z,96493.09
2023-05-19T02:47:31.833Z,96488.56
2023-05-19T02:49:58.260Z,96490.06
2023-05-19T02:52:24.689Z,96489.97
2023-05-19T02:54:51.086Z,96483.13
2023-05-19T02:57:17.456Z,96480.03
2023-05-19T02:59:43.905Z,96481.53
2023-05-19T03:02:10.432Z,96476.81
2023-05-19T03:04:36.863Z,96474.34
2023-05-19T03:07:03.304Z,96472.13
2023-05-19T03:09:29.733Z,96476.72
2023-05-19T03:11:56.180Z,96471.06
2023-05-19T03:14:22.562Z,96475.59
2023-05-19T03:16:49.069Z,96474.66
2023-05-19T03:19:15.668Z,96467.25
2023-05-19T03:21:42.126Z,96466.22
2023-05-19T03:24:08.510Z,96464.13
2023-05-19T03:26:34.947Z,96465.34
2023-05-19T03:29:01.330Z,96461.00
2023-05-19T03:31:27.746Z,96464.00
2023-05-19T03:33:54.193Z,96456.47
2023-05-19T03:36:20.572Z,96464.00
2023-05-19T03:38:46.955Z,96459.72
2023-05-19T03:41:13.379Z,96462.44
2023-05-19T03:43:39.814Z,96464.63
2023-05-19T03:46:06.240Z,96463.84
2023-05-19T03:48:32.710Z,96464.34
2023-05-19T03:50:59.091Z,96467.72
2023-05-19T03:53:25.474Z,96477.06
2023-05-19T03:55:51.898Z,96480.81
2023-05-19T03:58:18.288Z,96473.94
2023-05-19T04:00:44.710Z,96479.13
2023-05-19T04:03:11.252Z,96484.13
2023-05-19T04:05:37.731Z,96480.22
2023-05-19T04:08:04.120Z,96481.09
2023-05-19T04:10:30.637Z,96486.22
2023-05-19T04:12:57.232Z,96494.44
2023-05-19T04:15:23.611Z,96492.91
2023-05-19T04:17:50.005Z,96495.53
2023-05-19T04:20:16.451Z,96485.50
2023-05-19T04:22:42.852Z,96494.44
2023-05-19T04:25:09.279Z,96490.75
2023-05-19T04:27:35.670Z,96497.75
2023-05-19T04:30:02.050Z,96491.34
2023-05-19T04:32:28.449Z,96492.97
2023-05-19T04:34:54.905Z,96490.81
2023-05-19T04:37:21.314Z,96494.34
2023-05-19T04:39:47.737Z,96505.53
2023-05-19T04:42:14.183Z,96499.13
2023-05-19T04:44:40.563Z,96499.78
2023-05-19T04:47:07.009Z,96487.53
2023-05-19T04:49:33.502Z,96498.22
2023-05-19T04:51:59.946Z,96504.31
2023-05-19T04:54:26.317Z,96498.00
2023-05-19T04:56:52.736Z,96499.78
2023-05-19T04:59:19.111Z,96498.50
2023-05-19T05:01:45.545Z,96507.09
2023-05-19T05:04:12.013Z,96505.84
2023-05-19T05:06:38.500Z,96499.34
2023-05-19T05:09:04.984Z,96498.00
2023-05-19T05:11:31.394Z,96502.78
2023-05-19T05:13:57.768Z,96496.69
2023-05-19T05:16:24.242Z,96502.34
2023-05-19T05:18:50.661Z,96497.56
2023-05-19T05:21:17.097Z,96493.28
2023-05-19T05:23:43.508Z,96494.66
2023-05-19T05:26:09.930Z,96499.50
2023-05-19T05:28:36.348Z,96502.22
2023-05-19T05:31:02.772Z,96503.19
2023-05-19T05:33:29.178Z,96500.56
2023-05-19T05:35:55.644Z,96498.59
2023-05-19T05:38:22.062Z,96500.19
2023-05-19T05:40:48.490Z,96493.16
2023-05-19T05:43:14.927Z,96495.06
2023-05-19T05:45:41.362Z,96499.59
2023-05-19T05:48:07.867Z,96500.66
2023-05-19T05:50:34.298Z,96497.16
2023-05-19T05:53:00.708Z,96493.56
2023-05-19T05:55:27.102Z,96491.72
2023-05-19T05:57:53.477Z,96493.56
2023-05-19T06:00:19.902Z,96494.19
2023-05-19T06:02:46.490Z,96499.13
2023-05-19T06:05:13.024Z,96495.06
2023-05-19T06:07:39.499Z,96496.50
2023-05-19T06:10:05.939Z,96493.63
2023-05-19T06:12:32.396Z,96493.56
2023-05-19T06:14:58.781Z,96490.94
2023-05-19T06:17:25.237Z,96496.50
2023-05-19T06:19:51.718Z,96498.88
2023-05-19T06:22:18.175Z,96494.75
2023-05-19T06:24:44.559Z,96492.13
2023-05-19T06:27:10.939Z,96502.09
2023-05-19T06:29:37.365Z,96494.69
2023-05-19T06:32:03.762Z,96493.09
2023-05-19T06:34:30.188Z,96486.00
2023-05-19T06:36:56.571Z,96492.53
2023-05-19T06:39:23.002Z,96502.22
2023-05-19T06:41:49.427Z,96492.53
2023-05-19T06:44:15.802Z,96487.91
2023-05-19T06:46:42.224Z,96489.75
2023-05-19T06:49:08.620Z,96495.88
2023-05-19T06:51:35.010Z,96491.81
2023-05-19T06:54:01.464Z,96495.06
2023-05-19T06:56:27.849Z,96487.50
2023-05-19T06:58:54.283Z,96485.19
2023-05-19T07:01:20.706Z,96482.97
2023-05-19T07:03:47.138Z,96480.72
2023-05-19T07:06:13.786Z,96480.25
2023-05-19T07:08:40.231Z,96479.88
2023-05-19T07:11:07.059Z,96481.28
2023-05-19T07:13:33.428Z,96466.41
2023-05-19T07:15:59.917Z,96477.56
2023-05-19T07:18:26.329Z,96481.38
2023-05-19T07:20:52.759Z,96479.50
2023-05-19T07:23:19.187Z,96481.41
2023-05-19T07:25:45.577Z,96479.03
2023-05-19T07:28:12.013Z,96477.03
2023-05-19T07:30:38.406Z,96478.66
2023-05-19T07:33:04.851Z,96481.78
2023-05-19T07:35:31.304Z,96473.09
2023-05-19T07:37:57.674Z,96479.66
2023-05-19T07:40:24.056Z,96471.13
2023-05-19T07:42:50.450Z,96475.03
2023-05-19T07:45:16.898Z,96465.16
2023-05-19T07:47:43.436Z,96459.84
2023-05-19T07:50:09.880Z,96470.00
2023-05-19T07:52:36.343Z,96464.72
2023-05-19T07:55:02.761Z,96461.63
2023-05-19T07:57:29.186Z,96453.72
2023-05-19T07:59:55.583Z,96459.81
2023-05-19T08:02:22.126Z,96454.88
2023-05-19T08:04:48.726Z,96457.63
2023-05-19T08:07:15.208Z,96456.63
2023-05-19T08:09:41.571Z,96443.44
2023-05-19T08:12:07.994Z,96456.13
2023-05-19T08:14:34.389Z,96447.88
2023-05-19T08:17:00.828Z,96443.50
2023-05-19T08:19:27.396Z,96450.13
2023-05-19T08:21:53.948Z,96443.81
2023-05-19T08:24:20.365Z,96447.03
2023-05-19T08:26:46.749Z,96434.78
2023-05-19T08:29:13.202Z,96438.88
2023-05-19T08:31:39.627Z,96426.91
2023-05-19T08:34:06.201Z,96433.00
2023-05-19T08:36:32.596Z,96447.50
2023-05-19T08:38:59.083Z,96439.78
2023-05-19T08:41:25.479Z,96448.56
2023-05-19T08:43:51.851Z,96438.34
2023-05-19T08:46:18.332Z,96433.66
2023-05-19T08:48:44.811Z,96438.38
2023-05-19T08:51:11.207Z,96436.25
2023-05-19T08:53:37.577Z,96443.59
2023-05-19T08:56:03.960Z,96438.31
2023-05-19T08:58:30.353Z,96432.47
2023-05-19T09:00:56.783Z,96435.97
2023-05-19T09:03:24.056Z,96435.78
2023-05-19T09:05:50.768Z,96432.63
2023-05-19T09:08:17.305Z,96427.88
2023-05-19T09:10:43.697Z,96427.91
2023-05-19T09:13:10.129Z,96415.28
2023-05-19T09:15:36.693Z,96414.78
2023-05-19T09:18:03.328Z,96420.03
2023-05-19T09:20:29.860Z,96412.91
2023-05-19T09:22:56.288Z,96411.59
2023-05-19T09:25:22.751Z,96406.53
2023-05-19T09:27:49.138Z,96415.47
2023-05-19T09:30:15.531Z,96403.28
2023-05-19T09:32:41.997Z,96416.69
2023-05-19T09:35:08.403Z,96406.47
2023-05-19T09:37:34.843Z,96398.31
2023-05-19T09:40:01.237Z,96393.63
2023-05-19T09:42:27.649Z,96405.19
2023-05-19T09:44:54.028Z,96414.41
2023-05-19T09:47:20.449Z,96401.72
2023-05-19T09:49:46.893Z,96402.50
2023-05-19T09:52:13.280Z,96403.00
2023-05-19T09:54:39.735Z,96401.44
2023-05-19T09:57:08.127Z,96405.16
2023-05-19T09:59:35.068Z,96395.13
2023-05-19T10:02:01.581Z,96397.00
2023-05-19T10:04:28.071Z,96387.75
2023-05-19T10:06:54.547Z,96383.03
2023-05-19T10:09:20.969Z,96380.31
2023-05-19T10:11:47.372Z,96384.00
2023-05-19T10:14:13.802Z,96375.56
2023-05-19T10:16:40.216Z,96379.81
2023-05-19T10:19:06.691Z,96385.16
2023-05-19T10:21:33.134Z,96387.72
2023-05-19T10:23:59.580Z,96383.78
2023-05-19T10:26:26.012Z,96382.38
2023-05-19T10:28:52.419Z,96388.22
2023-05-19T10:31:18.855Z,96381.91
2023-05-19T10:33:45.424Z,96383.56
2023-05-19T10:36:11.810Z,96379.03
2023-05-19T10:38:38.209Z,96383.50
2023-05-19T10:41:04.634Z,96379.31
2023-05-19T10:43:31.075Z,96379.31
2023-05-19T10:45:57.451Z,96388.53
2023-05-19T10:48:23.882Z,96380.84
2023-05-19T10:50:50.269Z,96375.59
2023-05-19T10:53:16.643Z,96371.34
2023-05-19T10:55:43.079Z,96378.69
2023-05-19T10:58:09.506Z,96364.13
2023-05-19T11:00:35.908Z,96361.13
2023-05-19T11:03:02.387Z,96356.81
2023-05-19T11:05:28.828Z,96362.09
2023-05-19T11:07:55.287Z,96361.41
2023-05-19T11:10:21.730Z,96358.34
2023-05-19T11:12:48.116Z,96362.44
2023-05-19T11:15:14.556Z,96362.25
2023-05-19T11:17:40.994Z,96358.91
2023-05-19T11:20:07.441Z,96355.34
2023-05-19T11:22:33.889Z,96357.59
2023-05-19T11:25:00.280Z,96361.25
2023-05-19T11:27:26.736Z,96362.66
2023-05-19T11:29:53.149Z,96354.56
2023-05-19T11:32:19.621Z,96368.97
2023-05-19T11:34:46.189Z,96359.06
2023-05-19T11:37:12.568Z,96350.88
2023-05-19T11:39:38.984Z,96348.25
2023-05-19T11:42:05.437Z,96352.56
2023-05-19T11:44:31.832Z,96346.72
2023-05-19T11:46:58.269Z,96346.00
2023-05-19T11:49:24.695Z,96335.72
2023-05-19T11:51:51.121Z,96344.22
2023-05-19T11:54:17.501Z,96336.41
2023-05-19T11:56:43.927Z,96342.28
2023-05-19T11:59:10.330Z,96338.34
2023-05-19T12:01:36.694Z,96338.72
2023-05-19T12:04:03.205Z,96319.06
2023-05-19T12:06:29.703Z,96332.16
2023-05-19T12:08:56.162Z,96328.75
2023-05-19T12:11:22.591Z,96322.66
2023-05-19T12:13:48.978Z,96324.94
2023-05-19T12:16:15.424Z,96319.94
2023-05-19T12:18:41.901Z,96331.56
2023-05-19T12:21:08.434Z,96321.81
2023-05-19T12:23:34.819Z,96318.19
2023-05-19T12:26:01.282Z,96312.09
2023-05-19T12:28:27.678Z,96313.97
2023-05-19T12:30:54.047Z,96323.16
2023-05-19T12:33:20.492Z,96321.78
2023-05-19T12:35:46.904Z,96316.69
2023-05-19T12:38:13.328Z,96332.94
2023-05-19T12:40:39.737Z,96315.97
2023-05-19T12:43:06.166Z,96315.47
2023-05-19T12:45:32.574Z,96323.31
2023-05-19T12:47:59.054Z,96320.66
2023-05-19T12:50:25.498Z,96312.53
2023-05-19T12:52:51.901Z,96319.41
2023-05-19T12:55:18.949Z,96317.16
2023-05-19T12:57:45.347Z,96300.78
2023-05-19T13:00:11.755Z,96312.28
2023-05-19T13:02:38.235Z,96313.91
2023-05-19T13:05:04.738Z,96305.31
2023-05-19T13:07:31.140Z,96310.25
2023-05-19T13:09:57.564Z,96291.59
2023-05-19T13:12:24.014Z,96301.50
2023-05-19T13:14:50.387Z,96304.44
2023-05-19T13:17:16.800Z,96300.59
2023-05-19T13:19:43.317Z,96289.72
2023-05-19T13:22:09.777Z,96297.47
2023-05-19T13:24:36.161Z,96287.56
2023-05-19T13:27:02.559Z,96279.94
2023-05-19T13:29:29.017Z,96294.22
2023-05-19T13:31:55.444Z,96292.38
2023-05-19T13:34:21.880Z,96295.75
2023-05-19T13:36:48.388Z,96289.88
2023-05-19T13:39:14.813Z,96297.41
2023-05-19T13:41:41.238Z,96297.72
2023-05-19T13:44:07.661Z,96291.72
2023-05-19T13:46:44.809Z,96295.69
2023-05-19T13:49:12.347Z,96285.41
2023-05-19T13:51:38.746Z,96282.59
2023-05-19T13:54:05.216Z,96287.53
2023-05-19T13:56:31.749Z,96289.44
2023-05-19T13:58:58.196Z,96292.00
2023-05-19T14:01:24.694Z,96280.84
2023-05-19T14:03:51.268Z,96282.97
2023-05-19T14:06:17.865Z,96279.47
2023-05-19T14:08:44.300Z,96282.72
2023-05-19T14:11:10.706Z,96290.34
2023-05-19T14:13:40.384Z,96280.59
2023-05-19T14:16:09.124Z,96289.06
2023-05-19T14:18:35.623Z,96287.19
2023-05-19T14:21:02.018Z,96299.34
2023-05-19T14:23:28.413Z,96302.00
2023-05-19T14:25:54.865Z,96285.41
2023-05-19T14:28:21.299Z,96287.19
2023-05-19T14:30:48.322Z,96298.22
2023-05-19T14:33:14.845Z,96282.25
2023-05-19T14:35:41.279Z,96296.66
2023-05-19T14:38:07.721Z,96292.53
2023-05-19T14:40:34.336Z,96294.75
2023-05-19T14:43:00.894Z,96291.44
2023-05-19T14:45:27.289Z,96287.66
2023-05-19T14:47:53.779Z,96302.44
2023-05-19T14:50:20.276Z,96281.91
2023-05-19T14:52:46.655Z,96290.28
2023-05-19T14:55:13.089Z,96289.81
2023-05-19T14:57:39.489Z,96288.06
2023-05-19T15:00:05.930Z,96291.53
2023-05-19T15:02:32.335Z,96295.03
2023-05-19T15:04:58.796Z,96286.81
2023-05-19T15:07:25.175Z,96290.75
2023-05-19T15:09:51.547Z,96292.66
2023-05-19T15:12:17.923Z,96294.75
2023-05-19T15:14:44.347Z,96285.97
2023-05-19T15:17:10.883Z,96276.13
2023-05-19T15:19:37.393Z,96284.88
2023-05-19T15:22:03.843Z,96285.88
2023-05-19T15:24:30.245Z,96298.72
2023-05-19T15:26:56.669Z,96284.66
2023-05-19T15:29:23.105Z,96287.50
2023-05-19T15:31:49.637Z,96284.88
2023-05-19T15:34:16.141Z,96282.81
2023-05-19T15:36:42.540Z,96280.72
2023-05-19T15:39:08.905Z,96291.94
2023-05-19T15:41:35.338Z,96285.13
2023-05-19T15:44:01.797Z,96288.81
2023-05-19T15:46:28.266Z,96285.22
2023-05-19T15:48:54.712Z,96294.84
2023-05-19T15:51:21.095Z,96300.66
2023-05-19T15:53:47.492Z,96293.69
2023-05-19T15:56:14.127Z,96303.28
2023-05-19T15:58:40.613Z,96294.56
2023-05-19T16:01:07.011Z,96293.66
2023-05-19T16:03:33.467Z,96294.63
2023-05-19T16:05:59.993Z,96292.38
2023-05-19T16:08:26.453Z,96286.69
2023-05-19T16:10:52.875Z,96291.28
2023-05-19T16:13:19.301Z,96293.38
2023-05-19T16:15:45.738Z,96287.28
2023-05-19T16:18:12.174Z,96283.78
2023-05-19T16:20:38.678Z,96294.13
2023-05-19T16:23:05.107Z,96282.88
2023-05-19T16:25:31.498Z,96289.16
2023-05-19T16:27:57.928Z,96277.03
2023-05-19T16:30:24.306Z,96277.28
2023-05-19T16:32:50.752Z,96274.13
2023-05-19T16:35:17.216Z,96265.03
2023-05-19T16:37:43.605Z,96273.47
2023-05-19T16:40:10.029Z,96275.53
2023-05-19T16:42:36.458Z,96269.84
2023-05-19T16:45:02.853Z,96277.72
2023-05-19T16:47:29.245Z,96268.28
2023-05-19T16:49:55.708Z,96271.53
2023-05-19T16:52:22.188Z,96265.66
2023-05-19T16:54:48.584Z,96260.59
2023-05-19T16:57:14.985Z,96264.06
2023-05-19T16:59:41.401Z,96265.69
2023-05-19T17:02:07.871Z,96268.81
2023-05-19T17:04:34.329Z,96274.41
2023-05-19T17:07:00.758Z,96264.88
2023-05-19T17:09:27.141Z,96266.63
2023-05-19T17:11:53.552Z,96267.63
2023-05-19T17:14:19.943Z,96272.00
2023-05-19T17:16:46.370Z,96267.84
2023-05-19T17:19:12.900Z,96266.72
2023-05-19T17:21:39.320Z,96268.34
2023-05-19T17:24:05.748Z,96268.28
2023-05-19T17:26:32.171Z,96278.94
2023-05-19T17:28:58.575Z,96276.88
2023-05-19T17:31:25.014Z,96278.69
2023-05-19T17:33:51.449Z,96276.44
2023-05-19T17:36:17.840Z,96268.00
2023-05-19T17:38:44.282Z,96274.91
2023-05-19T17:41:10.752Z,96275.94
2023-05-19T17:43:37.225Z,96281.03
2023-05-19T17:46:03.629Z,96279.16
2023-05-19T17:48:30.061Z,96277.59
2023-05-19T17:50:56.473Z,96272.34
2023-05-19T17:53:22.873Z,96281.31
2023-05-19T17:55:49.244Z,96271.81
2023-05-19T17:58:15.695Z,96268.06
2023-05-19T18:00:42.107Z,96284.50
2023-05-19T18:03:08.599Z,96278.72
2023-05-19T18:05:35.051Z,96280.88
2023-05-19T18:08:01.475Z,96280.34
2023-05-19T18:10:27.904Z,96272.63
2023-05-19T18:12:55.425Z,96276.66
2023-05-19T18:15:21.841Z,96286.44
2023-05-19T18:17:48.294Z,96274.03
2023-05-19T18:20:14.728Z,96278.25
2023-05-19T18:22:41.111Z,96276.66
2023-05-19T18:25:07.478Z,96275.09
2023-05-19T18:27:33.849Z,96275.06
2023-05-19T18:30:00.273Z,96282.97
2023-05-19T18:32:26.720Z,96281.16
2023-05-19T18:34:53.155Z,96281.09
2023-05-19T18:37:19.561Z,96275.59
2023-05-19T18:39:45.967Z,96277.22
2023-05-19T18:42:12.400Z,96275.59
2023-05-19T18:44:38.796Z,96278.22
2023-05-19T18:47:05.208Z,96277.97
2023-05-19T18:49:31.597Z,96280.13
2023-05-19T18:51:58.010Z,96284.13
2023-05-19T18:54:24.403Z,96277.28
2023-05-19T18:56:50.827Z,96269.88
2023-05-19T18:59:17.267Z,96268.81
2023-05-19T19:01:43.812Z,96276.75
2023-05-19T19:04:10.359Z,96277.81
2023-05-19T19:06:36.832Z,96280.44
2023-05-19T19:09:03.279Z,96279.41
2023-05-19T19:11:29.672Z,96282.03
2023-05-19T19:13:56.102Z,96281.47
2023-05-19T19:16:22.549Z,96278.06
2023-05-19T19:18:49.076Z,96276.19
2023-05-19T19:21:15.554Z,96286.78
2023-05-19T19:23:41.922Z,96287.84
2023-05-19T19:26:08.355Z,96286.28
2023-05-19T19:28:34.749Z,96300.53
2023-05-19T19:31:01.154Z,96297.88
2023-05-19T19:33:27.531Z,96295.25
2023-05-19T19:35:53.977Z,96296.28
2023-05-19T19:38:20.369Z,96291.56
2023-05-19T19:40:46.874Z,96298.97
2023-05-19T19:43:13.286Z,96298.44
2023-05-19T19:45:39.714Z,96298.69
2023-05-19T19:48:06.125Z,96299.47
2023-05-19T19:50:32.761Z,96306.84
2023-05-19T19:52:59.341Z,96301.03
2023-05-19T19:55:25.728Z,96301.56
2023-05-19T19:57:52.145Z,96298.66
2023-05-19T20:00:18.553Z,96309.94
2023-05-19T20:03:02.971Z,96307.88
2023-05-19T20:05:30.555Z,96311.31
2023-05-19T20:07:57.112Z,96308.88
2023-05-19T20:10:23.714Z,96305.22
2023-05-19T20:12:50.145Z,96306.25
2023-05-19T20:15:16.573Z,96298.91
2023-05-19T20:17:43.054Z,96305.53
2023-05-19T20:20:09.457Z,96298.91
2023-05-19T20:22:35.823Z,96303.66
2023-05-19T20:25:02.380Z,96298.91
2023-05-19T20:27:28.761Z,96301.94
2023-05-19T20:29:55.198Z,96307.19
2023-05-19T20:32:21.695Z,96302.16
2023-05-19T20:34:48.474Z,96303.28
2023-05-19T20:37:14.893Z,96305.13
2023-05-19T20:39:41.316Z,96296.09
2023-05-19T20:42:07.761Z,96292.59
2023-05-19T20:44:34.203Z,96287.84
2023-05-19T20:47:00.591Z,96291.78
2023-05-19T20:49:27.009Z,96296.03
2023-05-19T20:51:53.447Z,96293.72
2023-05-19T20:54:19.895Z,96298.19
2023-05-19T20:56:46.287Z,96299.25
2023-05-19T20:59:12.735Z,96291.88
2023-05-19T21:01:39.216Z,96295.59
2023-05-19T21:04:05.704Z,96299.81
2023-05-19T21:06:32.164Z,96302.44
2023-05-19T21:08:58.624Z,96300.34
2023-05-19T21:11:25.000Z,96296.09
2023-05-19T21:13:51.398Z,96308.50
2023-05-19T21:16:17.846Z,96299.22
2023-05-19T21:18:44.306Z,96298.69
2023-05-19T21:21:10.768Z,96290.50
2023-05-19T21:23:37.151Z,96293.72
2023-05-19T21:26:03.685Z,96292.91
2023-05-19T21:28:30.078Z,96291.81
2023-05-19T21:30:56.541Z,96290.72
2023-05-19T21:33:22.997Z,96290.22
2023-05-19T21:35:49.421Z,96286.56
2023-05-19T21:38:23.828Z,96285.47
2023-05-19T21:40:50.654Z,96291.25
2023-05-19T21:43:17.094Z,96285.44
2023-05-19T21:45:43.491Z,96276.47
2023-05-19T21:48:10.011Z,96281.75
2023-05-19T21:50:36.533Z,96280.16
2023-05-19T21:53:02.958Z,96281.25
2023-05-19T21:55:29.434Z,96283.66
2023-05-19T21:57:55.825Z,96281.22
2023-05-19T22:00:22.207Z,96275.44
2023-05-19T22:02:48.663Z,96277.47
2023-05-19T22:05:15.124Z,96272.75
2023-05-19T22:07:41.511Z,96264.38
2023-05-19T22:10:07.909Z,96265.91
2023-05-19T22:12:34.277Z,96260.66
2023-05-19T22:15:00.720Z,96261.75
2023-05-19T22:17:27.194Z,96264.84
2023-05-19T22:19:53.601Z,96268.34
2023-05-19T22:22:20.003Z,96265.91
2023-05-19T22:24:46.493Z,96258.28
2023-05-19T22:27:12.931Z,96267.00
2023-05-19T22:29:39.379Z,96272.31
2023-05-19T22:32:05.865Z,96268.63
2023-05-19T22:34:32.298Z,96262.56
2023-05-19T22:36:58.766Z,96260.13
2023-05-19T22:39:25.201Z,96266.50
2023-05-19T22:41:51.581Z,96261.47
2023-05-19T22:44:18.029Z,96263.31
2023-05-19T22:46:44.463Z,96276.97
2023-05-19T22:49:10.892Z,96275.94
2023-05-19T22:51:37.294Z,96272.25
2023-05-19T22:54:03.694Z,96275.91
2023-05-19T22:56:30.132Z,96271.72
2023-05-19T22:58:56.532Z,96266.91
2023-05-19T23:01:23.028Z,96264.13
2023-05-19T23:03:49.516Z,96259.19
2023-05-19T23:06:15.918Z,96259.44
2023-05-19T23:08:42.667Z,96251.03
2023-05-19T23:11:09.539Z,96255.28
2023-05-19T23:13:35.918Z,96260.00
2023-05-19T23:16:02.299Z,96259.97
2023-05-19T23:18:28.722Z,96256.72
2023-05-19T23:20:55.117Z,96255.75
2023-05-19T23:23:21.548Z,96252.47
2023-05-19T23:25:47.953Z,96253.50
2023-05-19T23:28:14.383Z,96248.03
2023-05-19T23:30:40.764Z,96251.22
2023-05-19T23:33:07.221Z,96245.34
2023-05-19T23:35:33.974Z,96246.16
2023-05-19T23:38:00.531Z,96245.34
2023-05-19T23:40:26.984Z,96259.28
2023-05-19T23:42:53.430Z,96250.94
2023-05-19T23:45:19.823Z,96246.72
2023-05-19T23:47:46.282Z,96248.69
2023-05-19T23:50:12.710Z,96240.25
2023-05-19T23:52:39.138Z,96243.03
2023-05-19T23:55:05.561Z,96240.41
2023-05-19T23:57:31.952Z,96244.06
2023-05-19T23:59:58.396Z,96249.59
